createdAt,value
2022-10-04T00:01:45.919Z,101720.28
2022-10-04T00:04:24.321Z,101718.16
2022-10-04T00:07:12.585Z,101719.16
2022-10-04T00:09:49.106Z,101716.06
2022-10-04T00:12:26.114Z,101721.84
2022-10-04T00:15:01.418Z,101711.97
2022-10-04T00:17:36.187Z,101719.84
2022-10-04T00:20:47.236Z,101726.06
2022-10-04T00:23:50.288Z,101727.38
2022-10-04T00:26:25.066Z,101734.03
2022-10-04T00:28:53.396Z,101740.69
2022-10-04T00:31:27.299Z,101732.78
2022-10-04T00:34:04.749Z,101741.34
2022-10-04T00:36:49.041Z,101740.50
2022-10-04T00:39:42.465Z,101740.31
2022-10-04T00:42:29.377Z,101737.00
2022-10-04T00:45:08.874Z,101734.94
2022-10-04T00:48:11.987Z,101729.81
2022-10-04T00:50:47.639Z,101728.34
2022-10-04T00:53:39.423Z,101722.94
2022-10-04T00:56:27.092Z,101722.97
2022-10-04T00:58:55.707Z,101718.84
2022-10-04T01:01:30.478Z,101709.31
2022-10-04T01:04:06.420Z,101710.13
2022-10-04T01:06:37.981Z,101700.81
2022-10-04T01:09:09.189Z,101697.28
2022-10-04T01:11:47.192Z,101696.03
2022-10-04T01:14:27.630Z,101697.09
2022-10-04T01:16:55.832Z,101698.94
2022-10-04T01:19:24.876Z,101687.53
2022-10-04T01:22:05.163Z,101688.34
2022-10-04T01:24:44.393Z,101680.91
2022-10-04T01:27:45.211Z,101682.75
2022-10-04T01:30:16.736Z,101681.13
2022-10-04T01:32:45.449Z,101675.94
2022-10-04T01:35:16.408Z,101668.25
2022-10-04T01:37:44.341Z,101661.25
2022-10-04T01:40:13.117Z,101657.31
2022-10-04T01:42:42.293Z,101657.75
2022-10-04T01:45:20.405Z,101657.75
2022-10-04T01:47:56.589Z,101643.28
2022-10-04T01:50:36.440Z,101651.97
2022-10-04T01:53:30.621Z,101645.97
2022-10-04T01:56:30.264Z,101635.63
2022-10-04T01:59:04.748Z,101640.38
2022-10-04T02:01:48.789Z,101638.31
2022-10-04T02:04:35.785Z,101629.59
2022-10-04T02:07:12.757Z,101631.47
2022-10-04T02:09:45.543Z,101629.59
2022-10-04T02:12:19.242Z,101619.25
2022-10-04T02:14:53.999Z,101625.88
2022-10-04T02:17:38.352Z,101626.28
2022-10-04T02:20:14.372Z,101621.31
2022-10-04T02:22:43.852Z,101626.69
2022-10-04T02:25:13.851Z,101626.09
2022-10-04T02:27:42.115Z,101627.31
2022-10-04T02:30:13.211Z,101625.88
2022-10-04T02:33:00.402Z,101626.09
2022-10-04T02:35:53.184Z,101618.81
2022-10-04T02:38:29.382Z,101627.53
2022-10-04T02:41:13.127Z,101619.88
2022-10-04T02:44:10.531Z,101618.81
2022-10-04T02:46:51.746Z,101621.34
2022-10-04T02:49:34.686Z,101620.72
2022-10-04T02:52:06.818Z,101618.44
2022-10-04T02:54:57.054Z,101609.94
2022-10-04T02:57:25.757Z,101620.91
2022-10-04T03:00:21.201Z,101607.47
2022-10-04T03:03:16.415Z,101615.72
2022-10-04T03:05:47.957Z,101607.84
2022-10-04T03:08:16.052Z,101609.31
2022-10-04T03:10:44.247Z,101601.66
2022-10-04T03:13:16.281Z,101609.72
2022-10-04T03:15:45.211Z,101606.63
2022-10-04T03:18:15.694Z,101601.66
2022-10-04T03:20:46.151Z,101603.72
2022-10-04T03:23:17.859Z,101605.16
2022-10-04T03:26:20.031Z,101606.19
2022-10-04T03:28:48.328Z,101601.22
2022-10-04T03:31:17.244Z,101598.97
2022-10-04T03:33:46.047Z,101596.25
2022-10-04T03:36:18.775Z,101600.81
2022-10-04T03:38:49.287Z,101603.91
2022-10-04T03:41:17.355Z,101596.06
2022-10-04T03:43:58.562Z,101598.97
2022-10-04T03:46:38.136Z,101598.53
2022-10-04T03:49:09.517Z,101596.69
2022-10-04T03:51:46.118Z,101591.31
2022-10-04T03:54:19.691Z,101600.41
2022-10-04T03:56:48.937Z,101597.72
2022-10-04T03:59:19.009Z,101601.44
2022-10-04T04:01:51.415Z,101595.25
2022-10-04T04:04:37.304Z,101594.00
2022-10-04T04:07:13.209Z,101588.19
2022-10-04T04:10:26.479Z,101597.94
2022-10-04T04:12:58.995Z,101601.63
2022-10-04T04:15:33.811Z,101608.69
2022-10-04T04:18:08.373Z,101608.88
2022-10-04T04:20:39.006Z,101614.91
2022-10-04T04:23:16.186Z,101611.38
2022-10-04T04:25:48.920Z,101616.16
2022-10-04T04:28:22.822Z,101610.16
2022-10-04T04:31:02.784Z,101616.34
2022-10-04T04:33:38.729Z,101617.59
2022-10-04T04:36:11.618Z,101615.75
2022-10-04T04:39:18.337Z,101617.38
2022-10-04T04:41:50.365Z,101616.34
2022-10-04T04:44:20.673Z,101612.84
2022-10-04T04:46:48.902Z,101615.97
2022-10-04T04:49:19.193Z,101615.94
2022-10-04T04:51:51.797Z,101613.03
2022-10-04T04:54:26.468Z,101615.53
2022-10-04T04:56:57.845Z,101620.50
2022-10-04T04:59:28.427Z,101622.97
2022-10-04T05:01:56.438Z,101625.06
2022-10-04T05:04:27.004Z,101633.56
2022-10-04T05:07:03.998Z,101631.25
2022-10-04T05:09:37.731Z,101629.00
2022-10-04T05:12:18.747Z,101636.22
2022-10-04T05:14:50.056Z,101641.81
2022-10-04T05:17:25.778Z,101641.81
2022-10-04T05:19:59.178Z,101645.16
2022-10-04T05:22:29.319Z,101649.06
2022-10-04T05:25:03.062Z,101656.94
2022-10-04T05:27:38.966Z,101667.50
2022-10-04T05:30:14.139Z,101663.78
2022-10-04T05:33:02.342Z,101666.69
2022-10-04T05:35:39.321Z,101678.69
2022-10-04T05:38:29.683Z,101675.78
2022-10-04T05:41:06.549Z,101675.78
2022-10-04T05:43:47.483Z,101683.06
2022-10-04T05:46:21.372Z,101693.38
2022-10-04T05:49:06.142Z,101687.16
2022-10-04T05:51:54.705Z,101694.63
2022-10-04T05:54:29.172Z,101695.25
2022-10-04T05:57:22.506Z,101706.25
2022-10-04T06:00:12.987Z,101703.72
2022-10-04T06:03:08.864Z,101712.03
2022-10-04T06:05:56.342Z,101712.88
2022-10-04T06:08:45.806Z,101719.91
2022-10-04T06:11:28.224Z,101716.41
2022-10-04T06:14:31.610Z,101725.53
2022-10-04T06:17:15.374Z,101726.13
2022-10-04T06:20:18.344Z,101727.16
2022-10-04T06:22:48.992Z,101723.84
2022-10-04T06:25:39.610Z,101726.38
2022-10-04T06:28:22.270Z,101747.09
2022-10-04T06:31:18.831Z,101744.41
2022-10-04T06:34:31.391Z,101755.41
2022-10-04T06:37:20.757Z,101755.59
2022-10-04T06:39:54.565Z,101758.31
2022-10-04T06:42:37.531Z,101759.94
2022-10-04T06:45:28.789Z,101758.50
2022-10-04T06:48:27.967Z,101765.56
2022-10-04T06:51:01.621Z,101760.34
2022-10-04T06:53:44.646Z,101768.25
2022-10-04T06:56:41.745Z,101774.88
2022-10-04T06:59:15.191Z,101780.25
2022-10-04T07:02:00.049Z,101783.34
2022-10-04T07:05:07.118Z,101787.69
2022-10-04T07:07:51.462Z,101793.53
2022-10-04T07:11:03.895Z,101792.47
2022-10-04T07:13:42.729Z,101791.03
2022-10-04T07:16:34.954Z,101787.91
2022-10-04T07:19:24.792Z,101797.66
2022-10-04T07:21:56.060Z,101801.59
2022-10-04T07:24:59.479Z,101801.94
2022-10-04T07:28:14.935Z,101800.28
2022-10-04T07:31:28.666Z,101806.47
2022-10-04T07:34:03.665Z,101812.88
2022-10-04T07:36:57.132Z,101809.56
2022-10-04T07:40:09.434Z,101817.22
2022-10-04T07:43:06.394Z,101819.69
2022-10-04T07:45:44.805Z,101821.28
2022-10-04T07:48:16.998Z,101819.78
2022-10-04T07:51:04.030Z,101820.28
2022-10-04T07:53:45.380Z,101818.78
2022-10-04T07:56:27.164Z,101830.28
2022-10-04T07:59:30.657Z,101823.28
2022-10-04T08:02:51.624Z,101828.03
2022-10-04T08:05:23.668Z,101834.19
2022-10-04T08:08:24.202Z,101827.88
2022-10-04T08:11:28.884Z,101833.84
2022-10-04T08:14:45.979Z,101836.81
2022-10-04T08:17:47.201Z,101833.81
2022-10-04T08:20:24.426Z,101838.69
2022-10-04T08:23:20.817Z,101842.22
2022-10-04T08:40:47.758Z,101838.75
2022-10-04T08:44:02.964Z,101836.91
2022-10-04T08:47:06.526Z,101832.22
2022-10-04T08:49:47.484Z,101837.78
2022-10-04T08:52:28.288Z,101841.72
2022-10-04T08:55:35.519Z,101848.81
2022-10-04T08:58:27.806Z,101839.28
2022-10-04T09:01:28.775Z,101842.59
2022-10-04T09:04:34.763Z,101840.47
2022-10-04T09:07:26.406Z,101845.34
2022-10-04T09:10:25.107Z,101845.00
2022-10-04T09:13:36.127Z,101832.84
2022-10-04T09:16:19.217Z,101846.06
2022-10-04T09:19:25.652Z,101842.88
2022-10-04T09:22:13.270Z,101847.81
2022-10-04T09:25:17.456Z,101851.13
2022-10-04T09:28:12.095Z,101849.13
2022-10-04T09:30:57.885Z,101851.25
2022-10-04T09:33:41.890Z,101842.16
2022-10-04T09:36:21.421Z,101852.41
2022-10-04T09:39:30.278Z,101856.06
2022-10-04T09:42:26.609Z,101852.06
2022-10-04T09:45:12.608Z,101850.16
2022-10-04T09:47:53.775Z,101862.78
2022-10-04T09:50:45.993Z,101852.06
2022-10-04T09:53:22.393Z,101858.28
2022-10-04T09:56:04.646Z,101853.81
2022-10-04T09:58:48.823Z,101854.63
2022-10-04T10:01:46.921Z,101854.53
2022-10-04T10:05:00.584Z,101848.25
2022-10-04T10:08:09.671Z,101848.00
2022-10-04T10:12:02.846Z,101849.03
2022-10-04T10:14:45.341Z,101849.41
2022-10-04T10:17:36.861Z,101856.16
2022-10-04T10:20:23.968Z,101860.94
2022-10-04T10:26:24.783Z,101860.47
2022-10-04T10:41:19.653Z,101849.75
2022-10-04T10:44:20.830Z,101856.97
2022-10-04T10:47:06.954Z,101854.31
2022-10-04T10:49:54.122Z,101854.06
2022-10-04T10:52:34.152Z,101845.53
2022-10-04T10:55:27.215Z,101839.53
2022-10-04T10:58:14.665Z,101841.66
2022-10-04T11:01:02.735Z,101846.09
2022-10-04T11:04:04.795Z,101848.06
2022-10-04T11:06:49.031Z,101848.81
2022-10-04T11:09:30.506Z,101859.28
2022-10-04T11:12:23.836Z,101850.44
2022-10-04T11:15:28.639Z,101853.75
2022-10-04T11:18:43.942Z,101842.59
2022-10-04T11:21:51.301Z,101852.13
2022-10-04T11:25:17.461Z,101850.88
2022-10-04T11:32:10.373Z,101846.66
2022-10-04T11:35:01.776Z,101843.94
2022-10-04T11:37:54.122Z,101844.84
2022-10-04T11:40:36.307Z,101845.44
2022-10-04T11:43:47.358Z,101836.44
2022-10-04T11:46:48.711Z,101836.06
2022-10-04T11:49:54.846Z,101838.88
2022-10-04T11:52:49.960Z,101834.25
2022-10-04T11:55:54.495Z,101837.97
2022-10-04T11:58:46.523Z,101835.81
2022-10-04T12:01:38.966Z,101826.41
2022-10-04T12:04:38.574Z,101821.88
2022-10-04T12:07:27.363Z,101830.78
2022-10-04T12:10:30.451Z,101814.06
2022-10-04T12:13:39.093Z,101815.25
2022-10-04T12:16:27.825Z,101814.19
2022-10-04T12:19:46.015Z,101815.50
2022-10-04T12:22:45.979Z,101806.69
2022-10-04T12:25:56.641Z,101805.47
2022-10-04T12:28:40.346Z,101799.44
2022-10-04T12:40:25.656Z,101789.25
2022-10-04T12:43:35.082Z,101782.91
2022-10-04T12:46:31.408Z,101781.88
2022-10-04T12:49:54.731Z,101779.16
2022-10-04T12:52:58.423Z,101782.91
2022-10-04T12:56:08.874Z,101775.78
2022-10-04T12:59:12.259Z,101770.78
2022-10-04T13:01:48.998Z,101774.72
2022-10-04T13:04:39.633Z,101769.28
2022-10-04T13:07:37.162Z,101767.28
2022-10-04T13:10:40.607Z,101763.25
2022-10-04T13:14:05.363Z,101772.19
2022-10-04T13:23:34.597Z,101749.41
2022-10-04T13:29:45.438Z,101750.41
2022-10-04T13:32:19.477Z,101744.47
2022-10-04T13:35:25.967Z,101744.38
2022-10-04T13:38:31.695Z,101741.50
2022-10-04T13:41:03.123Z,101742.81
2022-10-04T13:43:58.743Z,101733.91
2022-10-04T13:46:40.492Z,101740.34
2022-10-04T13:49:36.689Z,101748.25
2022-10-04T13:52:42.621Z,101742.31
2022-10-04T13:55:53.899Z,101745.44
2022-10-04T13:58:47.290Z,101746.84
2022-10-04T14:01:30.345Z,101745.44
2022-10-04T14:04:06.852Z,101750.38
2022-10-04T14:07:09.484Z,101745.19
2022-10-04T14:10:13.902Z,101750.53
2022-10-04T14:13:00.044Z,101748.16
2022-10-04T14:15:55.717Z,101749.41
2022-10-04T14:18:55.531Z,101745.53
2022-10-04T14:21:36.436Z,101739.66
2022-10-04T14:24:11.170Z,101751.56
2022-10-04T14:27:10.024Z,101744.47
2022-10-04T14:29:46.419Z,101757.19
2022-10-04T14:32:31.374Z,101755.78
2022-10-04T14:35:10.962Z,101752.72
2022-10-04T14:38:14.791Z,101761.34
2022-10-04T14:41:07.656Z,101756.25
2022-10-04T14:44:00.129Z,101768.53
2022-10-04T14:46:56.512Z,101775.28
2022-10-04T14:49:37.022Z,101772.66
2022-10-04T14:52:22.455Z,101765.31
2022-10-04T14:55:08.297Z,101775.63
2022-10-04T14:58:02.954Z,101775.94
2022-10-04T15:01:14.899Z,101781.50
2022-10-04T15:04:20.234Z,101791.91
2022-10-04T15:07:03.176Z,101780.81
2022-10-04T15:10:14.948Z,101790.94
2022-10-04T15:16:01.064Z,101787.53
2022-10-04T15:18:53.530Z,101790.16
2022-10-04T15:21:36.530Z,101792.31
2022-10-04T15:24:19.435Z,101783.06
2022-10-04T15:27:22.286Z,101782.13
2022-10-04T15:30:08.627Z,101788.34
2022-10-04T15:32:37.291Z,101789.78
2022-10-04T15:35:22.991Z,101789.03
2022-10-04T15:37:51.206Z,101788.47
2022-10-04T15:40:25.601Z,101789.78
2022-10-04T15:43:14.106Z,101788.56
2022-10-04T15:46:19.673Z,101790.13
2022-10-04T15:49:37.562Z,101786.69
2022-10-04T15:52:18.616Z,101789.03
2022-10-04T15:55:08.380Z,101799.19
2022-10-04T15:57:36.146Z,101795.19
2022-10-04T16:00:23.267Z,101802.06
2022-10-04T16:03:11.218Z,101802.47
2022-10-04T16:05:43.591Z,101801.56
2022-10-04T16:09:02.640Z,101803.03
2022-10-04T16:11:51.285Z,101811.56
2022-10-04T16:14:27.861Z,101817.72
2022-10-04T16:17:14.179Z,101815.56
2022-10-04T16:20:16.833Z,101818.53
2022-10-04T16:23:24.416Z,101817.94
2022-10-04T16:25:56.220Z,101815.38
2022-10-04T16:28:23.853Z,101819.94
2022-10-04T16:31:20.386Z,101816.91
2022-10-04T16:34:08.537Z,101820.94
2022-10-04T16:36:52.869Z,101821.63
2022-10-04T16:40:07.221Z,101833.91
2022-10-04T16:42:57.742Z,101837.84
2022-10-04T16:45:31.318Z,101836.94
2022-10-04T16:48:07.486Z,101844.38
2022-10-04T16:50:54.177Z,101840.00
2022-10-04T16:53:51.094Z,101849.38
2022-10-04T16:56:26.170Z,101846.88
2022-10-04T16:59:09.814Z,101844.28
2022-10-04T17:02:11.465Z,101854.44
2022-10-04T17:04:41.921Z,101848.19
2022-10-04T17:07:34.271Z,101856.41
2022-10-04T17:10:21.538Z,101851.81
2022-10-04T17:13:16.507Z,101857.34
2022-10-04T17:16:04.604Z,101857.00
2022-10-04T17:18:52.163Z,101868.53
2022-10-04T17:21:23.117Z,101864.16
2022-10-04T17:24:05.236Z,101872.78
2022-10-04T17:26:47.938Z,101877.59
2022-10-04T17:29:28.460Z,101874.75
2022-10-04T17:32:26.171Z,101873.34
2022-10-04T17:35:35.342Z,101887.56
2022-10-04T17:38:11.196Z,101877.78
2022-10-04T17:41:03.284Z,101874.97
2022-10-04T17:43:42.300Z,101878.25
2022-10-04T17:46:16.971Z,101888.38
2022-10-04T17:49:09.050Z,101887.00
2022-10-04T17:51:59.317Z,101887.00
2022-10-04T17:55:02.454Z,101889.72
2022-10-04T17:57:41.468Z,101882.66
2022-10-04T18:00:18.550Z,101886.03
2022-10-04T18:03:10.375Z,101885.69
2022-10-04T18:05:46.482Z,101893.81
2022-10-04T18:08:32.576Z,101895.69
2022-10-04T18:11:25.057Z,101898.16
2022-10-04T18:14:23.663Z,101896.53
2022-10-04T18:16:56.661Z,101897.44
2022-10-04T18:20:18.118Z,101889.91
2022-10-04T18:22:57.351Z,101894.56
2022-10-04T18:25:51.711Z,101897.28
2022-10-04T18:28:23.023Z,101893.75
2022-10-04T18:30:51.657Z,101898.78
2022-10-04T18:33:26.681Z,101893.16
2022-10-04T18:36:13.879Z,101899.41
2022-10-04T18:38:45.057Z,101906.91
2022-10-04T18:41:20.732Z,101906.78
2022-10-04T18:44:05.581Z,101910.53
2022-10-04T18:46:50.286Z,101907.25
2022-10-04T18:49:37.004Z,101905.81
2022-10-04T18:52:11.330Z,101911.81
2022-10-04T18:54:57.433Z,101924.56
2022-10-04T18:58:06.617Z,101926.81
2022-10-04T19:01:04.403Z,101920.19
2022-10-04T19:03:54.025Z,101929.13
2022-10-04T19:06:34.585Z,101927.72
2022-10-04T19:09:39.801Z,101927.72
2022-10-04T19:12:22.011Z,101935.84
2022-10-04T19:15:19.057Z,101939.84
2022-10-04T19:17:53.275Z,101943.81
2022-10-04T19:21:10.756Z,101941.69
2022-10-04T19:23:39.602Z,101935.53
2022-10-04T19:26:32.009Z,101936.16
2022-10-04T19:29:07.397Z,101947.81
2022-10-04T19:31:58.381Z,101946.59
2022-10-04T19:34:47.771Z,101956.63
2022-10-04T19:37:32.073Z,101943.88
2022-10-04T19:40:23.031Z,101952.81
2022-10-04T19:42:59.736Z,101954.19
2022-10-04T19:45:36.116Z,101956.22
2022-10-04T19:48:32.675Z,101958.75
2022-10-04T19:51:35.821Z,101964.63
2022-10-04T19:54:44.425Z,101967.19
2022-10-04T19:57:17.307Z,101965.56
2022-10-04T19:59:50.036Z,101963.09
2022-10-04T20:02:23.003Z,101968.06
2022-10-04T20:04:59.004Z,101966.81
2022-10-04T20:07:31.144Z,101965.75
2022-10-04T20:10:24.269Z,101973.47
2022-10-04T20:13:27.128Z,101968.94
2022-10-04T20:16:04.873Z,101976.22
2022-10-04T20:18:42.695Z,101975.63
2022-10-04T20:21:26.660Z,101980.66
2022-10-04T20:23:59.734Z,101987.34
2022-10-04T20:27:08.590Z,101987.78
2022-10-04T20:29:39.448Z,101982.38
2022-10-04T20:32:37.409Z,101988.59
2022-10-04T20:35:22.508Z,101986.34
2022-10-04T20:38:07.874Z,101984.69
2022-10-04T20:40:46.317Z,101984.53
2022-10-04T20:43:20.765Z,101972.69
2022-10-04T20:45:58.735Z,101980.03
2022-10-04T20:48:34.763Z,101981.31
2022-10-04T20:51:10.002Z,101982.41
2022-10-04T20:53:53.776Z,101982.63
2022-10-04T20:56:27.715Z,101989.91
2022-10-04T20:59:05.921Z,101989.69
2022-10-04T21:01:36.267Z,101984.50
2022-10-04T21:04:21.524Z,101993.88
2022-10-04T21:07:08.092Z,101991.16
2022-10-04T21:09:42.310Z,101995.75
2022-10-04T21:12:37.780Z,101995.16
2022-10-04T21:15:20.137Z,101997.06
2022-10-04T21:18:04.716Z,102001.25
2022-10-04T21:20:51.478Z,101997.50
2022-10-04T21:23:39.581Z,102005.25
2022-10-04T21:26:26.996Z,102004.84
2022-10-04T21:29:10.611Z,102000.25
2022-10-04T21:31:47.357Z,101996.06
2022-10-04T21:34:34.604Z,101996.28
2022-10-04T21:37:03.453Z,101997.53
2022-10-04T21:39:31.450Z,101991.78
2022-10-04T21:42:06.172Z,101998.22
2022-10-04T21:44:40.021Z,102001.41
2022-10-04T21:47:13.947Z,101997.91
2022-10-04T21:49:43.903Z,102005.56
2022-10-04T21:52:11.576Z,102007.69
2022-10-04T21:54:39.277Z,101996.69
2022-10-04T21:57:06.892Z,102003.75
2022-10-04T21:59:34.886Z,102002.72
2022-10-04T22:02:02.758Z,102001.88
2022-10-04T22:04:32.030Z,102003.56
2022-10-04T22:07:04.409Z,102002.09
2022-10-04T22:09:33.491Z,102001.09
2022-10-04T22:12:01.081Z,102002.13
2022-10-04T22:14:28.485Z,102001.75
2022-10-04T22:17:01.418Z,101999.63
2022-10-04T22:19:29.030Z,102004.00
2022-10-04T22:21:57.111Z,102000.50
2022-10-04T22:24:24.980Z,102001.34
2022-10-04T22:26:52.184Z,101998.22
2022-10-04T22:29:20.066Z,101999.88
2022-10-04T22:31:51.352Z,102006.75
2022-10-04T22:34:23.224Z,102009.06
2022-10-04T22:36:56.304Z,102001.19
2022-10-04T22:39:26.187Z,102001.19
2022-10-04T22:41:59.649Z,102002.66
2022-10-04T22:44:33.979Z,102004.31
2022-10-04T22:47:02.879Z,102008.03
2022-10-04T22:49:34.548Z,102002.84
2022-10-04T22:52:07.003Z,102001.81
2022-10-04T22:54:36.315Z,101998.50
2022-10-04T22:57:04.219Z,102001.00
2022-10-04T22:59:39.357Z,101996.44
2022-10-04T23:02:15.149Z,101998.09
2022-10-04T23:04:51.686Z,101994.16
2022-10-04T23:07:23.897Z,102003.28
2022-10-04T23:09:51.663Z,102003.50
2022-10-04T23:12:19.013Z,101996.03
2022-10-04T23:14:46.921Z,101993.53
2022-10-04T23:17:26.931Z,101996.44
2022-10-04T23:19:59.161Z,101995.81
2022-10-04T23:22:29.541Z,101991.88
2022-10-04T23:24:58.638Z,102006.41
2022-10-04T23:27:27.678Z,102003.47
2022-10-04T23:30:03.908Z,102004.94
2022-10-04T23:32:33.533Z,102006.41
2022-10-04T23:35:04.429Z,102010.13
2022-10-04T23:37:33.382Z,102010.13
2022-10-04T23:40:01.832Z,102016.59
2022-10-04T23:42:33.902Z,102013.25
2022-10-04T23:45:02.877Z,102015.72
2022-10-04T23:47:36.419Z,102014.72
2022-10-04T23:50:24.931Z,102016.16
2022-10-04T23:52:57.945Z,102021.75
2022-10-04T23:55:39.032Z,102014.91
2022-10-04T23:58:15.491Z,102019.47
